sensor_id;sensor_type;location;lat;lon;timestamp;pressure;altitude;pressure_sealevel;temperature;humidity
5966;BME280;3009;43.224;27.976;2023-04-29T00:00:08;100506.66;;;8.80;53.61
5966;BME280;3009;43.224;27.976;2023-04-29T00:02:38;100496.38;;;8.87;53.18
5966;BME280;3009;43.224;27.976;2023-04-29T00:05:08;100505.47;;;8.86;53.27
5966;BME280;3009;43.224;27.976;2023-04-29T00:07:36;100510.44;;;8.79;53.56
5966;BME280;3009;43.224;27.976;2023-04-29T00:10:05;100492.78;;;8.78;53.29
5966;BME280;3009;43.224;27.976;2023-04-29T00:12:34;100496.78;;;8.80;53.34
5966;BME280;3009;43.224;27.976;2023-04-29T00:15:03;100496.88;;;8.89;53.22
5966;BME280;3009;43.224;27.976;2023-04-29T00:17:32;100498.56;;;8.85;53.35
5966;BME280;3009;43.224;27.976;2023-04-29T00:20:02;100493.44;;;8.69;53.73
5966;BME280;3009;43.224;27.976;2023-04-29T00:22:30;100505.31;;;8.63;54.19
5966;BME280;3009;43.224;27.976;2023-04-29T00:24:59;100512.06;;;8.61;54.29
5966;BME280;3009;43.224;27.976;2023-04-29T00:27:27;100505.00;;;8.65;54.25
5966;BME280;3009;43.224;27.976;2023-04-29T00:29:55;100498.31;;;8.67;54.40
5966;BME280;3009;43.224;27.976;2023-04-29T00:32:24;100499.97;;;8.63;54.50
5966;BME280;3009;43.224;27.976;2023-04-29T00:34:52;100495.28;;;8.55;54.71
5966;BME280;3009;43.224;27.976;2023-04-29T00:37:22;100495.28;;;8.55;54.63
5966;BME280;3009;43.224;27.976;2023-04-29T00:39:50;100494.84;;;8.48;55.18
5966;BME280;3009;43.224;27.976;2023-04-29T00:42:19;100494.84;;;8.48;55.16
5966;BME280;3009;43.224;27.976;2023-04-29T00:44:48;100502.13;;;8.42;55.47
5966;BME280;3009;43.224;27.976;2023-04-29T00:47:16;100500.31;;;8.38;55.80
5966;BME280;3009;43.224;27.976;2023-04-29T00:49:44;100498.81;;;8.31;56.02
5966;BME280;3009;43.224;27.976;2023-04-29T00:52:13;100502.94;;;8.24;56.60
5966;BME280;3009;43.224;27.976;2023-04-29T00:54:44;100500.06;;;8.20;56.63
5966;BME280;3009;43.224;27.976;2023-04-29T00:57:12;100496.06;;;8.18;56.92
5966;BME280;3009;43.224;27.976;2023-04-29T00:59:41;100502.06;;;8.09;57.09
5966;BME280;3009;43.224;27.976;2023-04-29T01:02:11;100499.13;;;8.11;57.00
5966;BME280;3009;43.224;27.976;2023-04-29T01:04:40;100498.59;;;8.09;56.93
5966;BME280;3009;43.224;27.976;2023-04-29T01:07:13;100496.50;;;8.06;57.17
5966;BME280;3009;43.224;27.976;2023-04-29T01:09:52;100498.72;;;7.98;57.36
5966;BME280;3009;43.224;27.976;2023-04-29T01:12:27;100493.94;;;7.95;57.53
5966;BME280;3009;43.224;27.976;2023-04-29T01:15:03;100494.81;;;7.91;57.69
5966;BME280;3009;43.224;27.976;2023-04-29T01:17:37;100492.72;;;7.88;57.72
5966;BME280;3009;43.224;27.976;2023-04-29T01:20:08;100485.28;;;7.85;57.94
5966;BME280;3009;43.224;27.976;2023-04-29T01:22:37;100495.25;;;7.79;58.25
5966;BME280;3009;43.224;27.976;2023-04-29T01:25:07;100494.16;;;7.80;58.27
5966;BME280;3009;43.224;27.976;2023-04-29T01:27:41;100484.34;;;7.75;58.26
5966;BME280;3009;43.224;27.976;2023-04-29T01:30:27;100479.94;;;7.66;58.68
5966;BME280;3009;43.224;27.976;2023-04-29T01:33:04;100487.94;;;7.66;58.46
5966;BME280;3009;43.224;27.976;2023-04-29T01:35:43;100493.31;;;7.60;58.82
5966;BME280;3009;43.224;27.976;2023-04-29T01:38:19;100491.50;;;7.56;59.00
5966;BME280;3009;43.224;27.976;2023-04-29T01:41:01;100493.00;;;7.43;59.50
5966;BME280;3009;43.224;27.976;2023-04-29T01:43:36;100491.88;;;7.44;59.60
5966;BME280;3009;43.224;27.976;2023-04-29T01:46:08;100497.59;;;7.37;59.66
5966;BME280;3009;43.224;27.976;2023-04-29T01:48:38;100490.88;;;7.40;59.93
5966;BME280;3009;43.224;27.976;2023-04-29T01:51:06;100491.75;;;7.35;59.85
5966;BME280;3009;43.224;27.976;2023-04-29T01:53:34;100500.03;;;7.34;59.96
5966;BME280;3009;43.224;27.976;2023-04-29T01:56:05;100489.19;;;7.25;60.67
5966;BME280;3009;43.224;27.976;2023-04-29T01:58:34;100490.53;;;7.22;60.52
5966;BME280;3009;43.224;27.976;2023-04-29T02:01:02;100487.28;;;7.25;60.57
5966;BME280;3009;43.224;27.976;2023-04-29T02:03:30;100493.69;;;7.24;60.38
5966;BME280;3009;43.224;27.976;2023-04-29T02:05:59;100485.97;;;7.23;60.32
5966;BME280;3009;43.224;27.976;2023-04-29T02:08:28;100495.06;;;7.22;60.10
5966;BME280;3009;43.224;27.976;2023-04-29T02:10:57;100499.09;;;7.19;60.26
5966;BME280;3009;43.224;27.976;2023-04-29T02:13:27;100491.16;;;7.14;60.43
5966;BME280;3009;43.224;27.976;2023-04-29T02:15:56;100493.81;;;7.14;60.40
5966;BME280;3009;43.224;27.976;2023-04-29T02:18:24;100486.81;;;7.18;59.99
5966;BME280;3009;43.224;27.976;2023-04-29T02:20:59;100490.59;;;7.17;60.01
5966;BME280;3009;43.224;27.976;2023-04-29T02:23:27;100487.34;;;7.20;59.98
5966;BME280;3009;43.224;27.976;2023-04-29T02:25:56;100486.59;;;7.15;60.09
5966;BME280;3009;43.224;27.976;2023-04-29T02:28:24;100484.16;;;7.18;59.90
5966;BME280;3009;43.224;27.976;2023-04-29T02:30:54;100481.59;;;7.08;60.27
5966;BME280;3009;43.224;27.976;2023-04-29T02:33:22;100487.97;;;7.12;60.02
5966;BME280;3009;43.224;27.976;2023-04-29T02:35:51;100488.31;;;7.05;60.17
5966;BME280;3009;43.224;27.976;2023-04-29T02:38:19;100488.03;;;7.07;60.22
5966;BME280;3009;43.224;27.976;2023-04-29T02:40:47;100486.41;;;7.06;60.05
5966;BME280;3009;43.224;27.976;2023-04-29T02:43:16;100482.22;;;7.00;60.33
5966;BME280;3009;43.224;27.976;2023-04-29T02:45:44;100487.31;;;6.96;60.63
5966;BME280;3009;43.224;27.976;2023-04-29T02:48:15;100479.31;;;6.96;60.73
5966;BME280;3009;43.224;27.976;2023-04-29T02:50:44;100479.31;;;6.96;60.65
5966;BME280;3009;43.224;27.976;2023-04-29T02:53:12;100489.22;;;6.90;60.81
5966;BME280;3009;43.224;27.976;2023-04-29T02:55:40;100484.41;;;6.92;60.78
5966;BME280;3009;43.224;27.976;2023-04-29T02:58:09;100485.53;;;6.86;60.89
5966;BME280;3009;43.224;27.976;2023-04-29T03:00:39;100483.91;;;6.90;60.61
5966;BME280;3009;43.224;27.976;2023-04-29T03:03:08;100489.81;;;6.82;61.04
5966;BME280;3009;43.224;27.976;2023-04-29T03:05:38;100488.25;;;6.81;60.97
5966;BME280;3009;43.224;27.976;2023-04-29T03:08:06;100490.63;;;6.83;61.05
5966;BME280;3009;43.224;27.976;2023-04-29T03:10:36;100485.53;;;6.86;61.03
5966;BME280;3009;43.224;27.976;2023-04-29T03:13:07;100485.59;;;6.76;61.15
5966;BME280;3009;43.224;27.976;2023-04-29T03:15:35;100491.41;;;6.83;60.94
5966;BME280;3009;43.224;27.976;2023-04-29T03:18:05;100487.69;;;6.84;60.60
5966;BME280;3009;43.224;27.976;2023-04-29T03:20:33;100485.50;;;6.91;60.27
5966;BME280;3009;43.224;27.976;2023-04-29T03:23:03;100486.00;;;6.94;60.35
5966;BME280;3009;43.224;27.976;2023-04-29T03:25:31;100487.13;;;6.87;60.83
5966;BME280;3009;43.224;27.976;2023-04-29T03:27:59;100487.25;;;7.01;60.21
5966;BME280;3009;43.224;27.976;2023-04-29T03:30:28;100488.72;;;7.42;58.88
5966;BME280;3009;43.224;27.976;2023-04-29T03:32:56;100493.56;;;7.83;56.95
5966;BME280;3009;43.224;27.976;2023-04-29T03:35:24;100494.19;;;7.99;56.52
5966;BME280;3009;43.224;27.976;2023-04-29T03:37:53;100493.44;;;8.69;54.40
5966;BME280;3009;43.224;27.976;2023-04-29T03:40:22;100500.09;;;8.72;53.37
5966;BME280;3009;43.224;27.976;2023-04-29T03:42:51;100498.66;;;8.23;54.82
5966;BME280;3009;43.224;27.976;2023-04-29T03:45:19;100502.19;;;7.99;55.65
5966;BME280;3009;43.224;27.976;2023-04-29T03:47:47;100503.00;;;7.56;57.12
5966;BME280;3009;43.224;27.976;2023-04-29T03:50:16;100505.75;;;7.46;57.76
5966;BME280;3009;43.224;27.976;2023-04-29T03:52:44;100504.56;;;7.57;57.80
5966;BME280;3009;43.224;27.976;2023-04-29T03:55:12;100514.06;;;8.31;55.55
5966;BME280;3009;43.224;27.976;2023-04-29T03:57:42;100506.59;;;9.32;52.87
5966;BME280;3009;43.224;27.976;2023-04-29T04:00:11;100504.19;;;10.00;50.22
5966;BME280;3009;43.224;27.976;2023-04-29T04:02:40;100510.59;;;10.49;48.57
5966;BME280;3009;43.224;27.976;2023-04-29T04:05:09;100513.22;;;11.08;47.12
5966;BME280;3009;43.224;27.976;2023-04-29T04:07:37;100506.41;;;11.02;46.92
5966;BME280;3009;43.224;27.976;2023-04-29T04:10:06;100507.50;;;10.78;46.93
5966;BME280;3009;43.224;27.976;2023-04-29T04:12:34;100512.41;;;11.39;46.32
5966;BME280;3009;43.224;27.976;2023-04-29T04:15:05;100507.66;;;11.76;45.01
5966;BME280;3009;43.224;27.976;2023-04-29T04:17:33;100508.91;;;11.79;45.11
5966;BME280;3009;43.224;27.976;2023-04-29T04:20:02;100510.56;;;12.06;44.23
5966;BME280;3009;43.224;27.976;2023-04-29T04:22:31;100516.59;;;12.20;44.19
5966;BME280;3009;43.224;27.976;2023-04-29T04:24:59;100501.72;;;12.14;44.02
5966;BME280;3009;43.224;27.976;2023-04-29T04:27:27;100508.84;;;12.28;43.77
5966;BME280;3009;43.224;27.976;2023-04-29T04:29:56;100516.03;;;11.92;44.35
5966;BME280;3009;43.224;27.976;2023-04-29T04:32:25;100509.94;;;12.27;43.97
5966;BME280;3009;43.224;27.976;2023-04-29T04:34:54;100509.59;;;12.81;43.00
5966;BME280;3009;43.224;27.976;2023-04-29T04:37:23;100506.63;;;13.21;42.04
5966;BME280;3009;43.224;27.976;2023-04-29T04:39:51;100508.31;;;12.96;42.01
5966;BME280;3009;43.224;27.976;2023-04-29T04:42:21;100507.84;;;14.00;40.21
5966;BME280;3009;43.224;27.976;2023-04-29T04:44:51;100515.69;;;13.63;41.24
5966;BME280;3009;43.224;27.976;2023-04-29T04:47:19;100520.53;;;14.00;39.86
5966;BME280;3009;43.224;27.976;2023-04-29T04:49:49;100512.47;;;15.09;37.69
5966;BME280;3009;43.224;27.976;2023-04-29T04:52:19;100519.72;;;15.42;36.63
5966;BME280;3009;43.224;27.976;2023-04-29T04:54:48;100519.81;;;15.21;37.29
5966;BME280;3009;43.224;27.976;2023-04-29T04:57:16;100514.66;;;15.65;36.02
5966;BME280;3009;43.224;27.976;2023-04-29T04:59:44;100514.72;;;15.07;37.01
5966;BME280;3009;43.224;27.976;2023-04-29T05:02:13;100515.16;;;16.20;34.88
5966;BME280;3009;43.224;27.976;2023-04-29T05:04:41;100521.28;;;15.68;35.81
5966;BME280;3009;43.224;27.976;2023-04-29T05:07:12;100521.03;;;16.10;35.17
5966;BME280;3009;43.224;27.976;2023-04-29T05:09:40;100519.25;;;16.42;34.76
5966;BME280;3009;43.224;27.976;2023-04-29T05:12:08;100528.72;;;17.88;32.61
5966;BME280;3009;43.224;27.976;2023-04-29T05:14:37;100526.59;;;15.64;34.88
5966;BME280;3009;43.224;27.976;2023-04-29T05:17:05;100524.41;;;16.19;35.17
5966;BME280;3009;43.224;27.976;2023-04-29T05:19:35;100522.81;;;16.18;34.93
5966;BME280;3009;43.224;27.976;2023-04-29T05:22:04;100514.94;;;16.82;33.04
5966;BME280;3009;43.224;27.976;2023-04-29T05:24:34;100522.31;;;17.13;33.19
5966;BME280;3009;43.224;27.976;2023-04-29T05:27:02;100522.63;;;16.11;33.76
5966;BME280;3009;43.224;27.976;2023-04-29T05:29:31;100525.13;;;16.73;32.92
5966;BME280;3009;43.224;27.976;2023-04-29T05:31:59;100518.72;;;16.65;32.76
5966;BME280;3009;43.224;27.976;2023-04-29T05:34:28;100518.25;;;15.94;34.11
5966;BME280;3009;43.224;27.976;2023-04-29T05:36:57;100520.97;;;15.82;34.75
5966;BME280;3009;43.224;27.976;2023-04-29T05:39:25;100513.59;;;16.19;34.01
5966;BME280;3009;43.224;27.976;2023-04-29T05:41:55;100521.72;;;16.47;33.78
5966;BME280;3009;43.224;27.976;2023-04-29T05:44:24;100520.28;;;15.97;34.47
5966;BME280;3009;43.224;27.976;2023-04-29T05:46:53;100522.25;;;16.25;34.43
5966;BME280;3009;43.224;27.976;2023-04-29T05:49:21;100521.13;;;16.13;34.15
5966;BME280;3009;43.224;27.976;2023-04-29T05:51:49;100522.16;;;16.78;32.99
5966;BME280;3009;43.224;27.976;2023-04-29T05:54:18;100513.09;;;16.29;33.05
5966;BME280;3009;43.224;27.976;2023-04-29T05:56:46;100527.50;;;15.93;33.78
5966;BME280;3009;43.224;27.976;2023-04-29T05:59:16;100516.22;;;17.84;31.58
5966;BME280;3009;43.224;27.976;2023-04-29T06:01:45;100512.66;;;18.74;29.23
5966;BME280;3009;43.224;27.976;2023-04-29T06:04:13;100515.09;;;17.85;29.80
5966;BME280;3009;43.224;27.976;2023-04-29T06:06:42;100509.34;;;16.91;31.95
5966;BME280;3009;43.224;27.976;2023-04-29T06:09:10;100515.75;;;17.46;30.70
5966;BME280;3009;43.224;27.976;2023-04-29T06:11:53;100517.69;;;18.13;30.15
5966;BME280;3009;43.224;27.976;2023-04-29T06:14:23;100511.50;;;17.45;30.69
5966;BME280;3009;43.224;27.976;2023-04-29T06:16:52;100519.16;;;17.11;29.73
5966;BME280;3009;43.224;27.976;2023-04-29T06:19:20;100503.63;;;17.40;30.40
5966;BME280;3009;43.224;27.976;2023-04-29T06:21:49;100507.34;;;17.67;30.03
5966;BME280;3009;43.224;27.976;2023-04-29T06:24:17;100508.31;;;18.11;28.73
5966;BME280;3009;43.224;27.976;2023-04-29T06:26:45;100512.69;;;18.35;28.52
5966;BME280;3009;43.224;27.976;2023-04-29T06:29:15;100500.19;;;18.73;27.63
5966;BME280;3009;43.224;27.976;2023-04-29T06:31:44;100507.72;;;17.34;29.18
5966;BME280;3009;43.224;27.976;2023-04-29T06:34:13;100513.22;;;17.69;29.51
5966;BME280;3009;43.224;27.976;2023-04-29T06:36:41;100515.88;;;19.26;27.48
5966;BME280;3009;43.224;27.976;2023-04-29T06:39:09;100511.69;;;17.88;28.65
5966;BME280;3009;43.224;27.976;2023-04-29T06:41:38;100506.03;;;17.61;29.28
5966;BME280;3009;43.224;27.976;2023-04-29T06:44:06;100508.44;;;17.82;28.85
5966;BME280;3009;43.224;27.976;2023-04-29T06:46:35;100513.16;;;18.60;28.14
5966;BME280;3009;43.224;27.976;2023-04-29T06:49:06;100503.28;;;17.26;29.63
5966;BME280;3009;43.224;27.976;2023-04-29T06:51:36;100502.94;;;17.79;28.81
5966;BME280;3009;43.224;27.976;2023-04-29T06:54:04;100510.69;;;18.32;28.63
5966;BME280;3009;43.224;27.976;2023-04-29T06:56:32;100501.81;;;18.54;28.10
5966;BME280;3009;43.224;27.976;2023-04-29T06:59:01;100507.84;;;16.77;29.58
5966;BME280;3009;43.224;27.976;2023-04-29T07:01:30;100534.31;;;16.84;30.06
5966;BME280;3009;43.224;27.976;2023-04-29T07:03:58;100513.59;;;16.19;31.05
5966;BME280;3009;43.224;27.976;2023-04-29T07:06:28;100513.63;;;16.63;30.57
5966;BME280;3009;43.224;27.976;2023-04-29T07:08:56;100499.38;;;17.59;29.72
5966;BME280;3009;43.224;27.976;2023-04-29T07:11:26;100506.25;;;16.20;31.36
5966;BME280;3009;43.224;27.976;2023-04-29T07:13:54;100507.72;;;16.74;31.24
5966;BME280;3009;43.224;27.976;2023-04-29T07:16:23;100498.56;;;16.62;30.86
5966;BME280;3009;43.224;27.976;2023-04-29T07:18:52;100513.84;;;16.99;30.73
5966;BME280;3009;43.224;27.976;2023-04-29T07:21:21;100502.13;;;17.27;31.15
5966;BME280;3009;43.224;27.976;2023-04-29T07:23:50;100503.34;;;17.13;31.23
5966;BME280;3009;43.224;27.976;2023-04-29T07:26:20;100501.31;;;16.50;32.14
5966;BME280;3009;43.224;27.976;2023-04-29T07:28:49;100511.75;;;17.08;31.14
5966;BME280;3009;43.224;27.976;2023-04-29T07:31:17;100505.97;;;17.10;31.48
5966;BME280;3009;43.224;27.976;2023-04-29T07:33:45;100505.63;;;17.59;30.74
5966;BME280;3009;43.224;27.976;2023-04-29T07:36:14;100497.41;;;17.08;31.53
5966;BME280;3009;43.224;27.976;2023-04-29T07:38:43;100505.03;;;16.45;31.93
5966;BME280;3009;43.224;27.976;2023-04-29T07:41:12;100513.44;;;15.87;33.29
5966;BME280;3009;43.224;27.976;2023-04-29T07:43:41;100509.22;;;14.49;35.93
5966;BME280;3009;43.224;27.976;2023-04-29T07:46:09;100497.13;;;14.13;37.32
5966;BME280;3009;43.224;27.976;2023-04-29T07:48:37;100501.00;;;14.66;35.96
5966;BME280;3009;43.224;27.976;2023-04-29T07:51:06;100496.13;;;14.39;35.82
5966;BME280;3009;43.224;27.976;2023-04-29T07:53:39;100492.22;;;14.15;36.66
5966;BME280;3009;43.224;27.976;2023-04-29T07:56:08;100505.63;;;14.24;37.07
5966;BME280;3009;43.224;27.976;2023-04-29T07:58:38;100497.59;;;13.94;37.61
5966;BME280;3009;43.224;27.976;2023-04-29T08:01:07;100485.94;;;13.81;37.68
5966;BME280;3009;43.224;27.976;2023-04-29T08:03:36;100495.31;;;14.05;37.97
5966;BME280;3009;43.224;27.976;2023-04-29T08:06:07;100491.25;;;13.69;37.35
5966;BME280;3009;43.224;27.976;2023-04-29T08:08:36;100497.19;;;13.83;37.51
5966;BME280;3009;43.224;27.976;2023-04-29T08:11:04;100489.78;;;13.80;38.31
5966;BME280;3009;43.224;27.976;2023-04-29T08:13:33;100491.34;;;14.02;37.90
5966;BME280;3009;43.224;27.976;2023-04-29T08:16:03;100475.34;;;13.76;37.36
5966;BME280;3009;43.224;27.976;2023-04-29T08:18:31;100480.88;;;14.00;37.41
5966;BME280;3009;43.224;27.976;2023-04-29T08:20:59;100480.38;;;14.28;37.49
5966;BME280;3009;43.224;27.976;2023-04-29T08:23:28;100478.78;;;14.06;38.33
5966;BME280;3009;43.224;27.976;2023-04-29T08:25:56;100467.63;;;14.16;37.91
5966;BME280;3009;43.224;27.976;2023-04-29T08:28:24;100490.03;;;14.08;37.61
5966;BME280;3009;43.224;27.976;2023-04-29T08:30:53;100485.09;;;13.89;38.41
5966;BME280;3009;43.224;27.976;2023-04-29T08:33:23;100480.13;;;14.21;37.84
5966;BME280;3009;43.224;27.976;2023-04-29T08:35:57;100479.38;;;14.33;37.27
5966;BME280;3009;43.224;27.976;2023-04-29T08:38:26;100475.06;;;14.20;38.10
5966;BME280;3009;43.224;27.976;2023-04-29T08:40:54;100461.47;;;14.49;37.09
5966;BME280;3009;43.224;27.976;2023-04-29T08:43:23;100480.47;;;14.53;37.77
5966;BME280;3009;43.224;27.976;2023-04-29T08:45:52;100474.56;;;14.39;37.24
5966;BME280;3009;43.224;27.976;2023-04-29T08:48:23;100468.50;;;14.42;37.83
5966;BME280;3009;43.224;27.976;2023-04-29T08:50:53;100460.97;;;14.68;37.87
5966;BME280;3009;43.224;27.976;2023-04-29T08:53:24;100465.72;;;14.84;36.75
5966;BME280;3009;43.224;27.976;2023-04-29T08:55:53;100459.88;;;14.82;36.30
5966;BME280;3009;43.224;27.976;2023-04-29T08:58:24;100461.78;;;14.69;37.11
5966;BME280;3009;43.224;27.976;2023-04-29T09:00:52;100469.00;;;14.56;36.72
5966;BME280;3009;43.224;27.976;2023-04-29T09:03:26;100455.50;;;14.23;37.30
5966;BME280;3009;43.224;27.976;2023-04-29T09:05:55;100459.03;;;14.35;37.53
5966;BME280;3009;43.224;27.976;2023-04-29T09:08:27;100448.53;;;14.22;37.81
5966;BME280;3009;43.224;27.976;2023-04-29T09:10:57;100450.34;;;14.51;37.10
5966;BME280;3009;43.224;27.976;2023-04-29T09:13:26;100436.69;;;14.68;36.03
5966;BME280;3009;43.224;27.976;2023-04-29T09:15:55;100432.91;;;14.94;36.26
5966;BME280;3009;43.224;27.976;2023-04-29T09:18:45;100435.69;;;14.85;35.01
5966;BME280;3009;43.224;27.976;2023-04-29T09:21:16;100443.03;;;14.97;35.34
5966;BME280;3009;43.224;27.976;2023-04-29T09:23:50;100436.28;;;15.03;35.08
5966;BME280;3009;43.224;27.976;2023-04-29T09:26:18;100430.31;;;14.85;35.67
5966;BME280;3009;43.224;27.976;2023-04-29T09:29:05;100437.19;;;14.95;34.36
5966;BME280;3009;43.224;27.976;2023-04-29T09:31:36;100434.34;;;14.79;35.42
5966;BME280;3009;43.224;27.976;2023-04-29T09:34:07;100422.44;;;14.93;34.06
5966;BME280;3009;43.224;27.976;2023-04-29T09:36:42;100412.00;;;15.03;35.03
5966;BME280;3009;43.224;27.976;2023-04-29T09:39:13;100417.81;;;15.42;34.58
5966;BME280;3009;43.224;27.976;2023-04-29T09:41:56;100418.97;;;14.80;35.32
5966;BME280;3009;43.224;27.976;2023-04-29T09:44:27;100415.13;;;14.81;34.87
5966;BME280;3009;43.224;27.976;2023-04-29T09:47:01;100404.44;;;14.84;35.37
5966;BME280;3009;43.224;27.976;2023-04-29T09:49:32;100402.31;;;15.27;35.50
5966;BME280;3009;43.224;27.976;2023-04-29T09:52:04;100391.97;;;15.04;34.69
5966;BME280;3009;43.224;27.976;2023-04-29T09:54:33;100385.00;;;15.28;34.77
5966;BME280;3009;43.224;27.976;2023-04-29T09:57:03;100397.69;;;15.52;34.73
5966;BME280;3009;43.224;27.976;2023-04-29T09:59:34;100396.69;;;15.07;34.58
5966;BME280;3009;43.224;27.976;2023-04-29T10:02:06;100389.94;;;14.89;34.48
5966;BME280;3009;43.224;27.976;2023-04-29T10:04:40;100396.88;;;14.65;35.35
5966;BME280;3009;43.224;27.976;2023-04-29T10:07:13;100389.03;;;14.73;35.22
5966;BME280;3009;43.224;27.976;2023-04-29T10:09:44;100391.28;;;14.83;34.79
5966;BME280;3009;43.224;27.976;2023-04-29T10:12:15;100396.69;;;14.83;35.85
5966;BME280;3009;43.224;27.976;2023-04-29T10:14:47;100394.44;;;14.73;35.61
5966;BME280;3009;43.224;27.976;2023-04-29T10:17:23;100376.09;;;14.91;35.34
5966;BME280;3009;43.224;27.976;2023-04-29T10:19:59;100386.81;;;14.99;35.99
5966;BME280;3009;43.224;27.976;2023-04-29T10:22:40;100405.38;;;15.01;35.06
5966;BME280;3009;43.224;27.976;2023-04-29T10:25:11;100374.88;;;14.88;35.97
5966;BME280;3009;43.224;27.976;2023-04-29T10:27:42;100364.75;;;14.85;35.07
5966;BME280;3009;43.224;27.976;2023-04-29T10:30:12;100371.94;;;14.81;34.48
5966;BME280;3009;43.224;27.976;2023-04-29T10:32:41;100361.94;;;14.81;34.50
5966;BME280;3009;43.224;27.976;2023-04-29T10:35:19;100365.66;;;15.01;34.74
5966;BME280;3009;43.224;27.976;2023-04-29T10:37:49;100361.59;;;15.07;35.17
5966;BME280;3009;43.224;27.976;2023-04-29T10:40:23;100361.38;;;15.13;35.45
5966;BME280;3009;43.224;27.976;2023-04-29T10:42:54;100355.06;;;15.09;35.28
5966;BME280;3009;43.224;27.976;2023-04-29T10:45:24;100351.00;;;15.27;35.32
5966;BME280;3009;43.224;27.976;2023-04-29T10:48:10;100360.66;;;15.40;35.79
5966;BME280;3009;43.224;27.976;2023-04-29T10:51:00;100353.03;;;15.71;35.16
5966;BME280;3009;43.224;27.976;2023-04-29T10:53:32;100347.97;;;15.69;34.42
5966;BME280;3009;43.224;27.976;2023-04-29T10:56:06;100348.63;;;15.79;35.57
5966;BME280;3009;43.224;27.976;2023-04-29T10:58:37;100350.41;;;15.74;35.53
5966;BME280;3009;43.224;27.976;2023-04-29T11:01:06;100334.53;;;15.73;34.15
5966;BME280;3009;43.224;27.976;2023-04-29T11:03:53;100335.63;;;15.56;34.92
5966;BME280;3009;43.224;27.976;2023-04-29T11:06:39;100344.81;;;15.80;33.92
5966;BME280;3009;43.224;27.976;2023-04-29T11:09:10;100345.19;;;15.66;34.26
5966;BME280;3009;43.224;27.976;2023-04-29T11:11:48;100338.19;;;15.65;34.81
5966;BME280;3009;43.224;27.976;2023-04-29T11:14:25;100339.94;;;15.45;35.74
5966;BME280;3009;43.224;27.976;2023-04-29T11:16:56;100336.75;;;15.55;35.17
5966;BME280;3009;43.224;27.976;2023-04-29T11:19:27;100334.72;;;15.52;35.15
5966;BME280;3009;43.224;27.976;2023-04-29T11:22:11;100339.94;;;15.32;35.01
5966;BME280;3009;43.224;27.976;2023-04-29T11:24:50;100330.81;;;15.49;34.87
5966;BME280;3009;43.224;27.976;2023-04-29T11:27:20;100317.88;;;15.42;34.87
5966;BME280;3009;43.224;27.976;2023-04-29T11:29:52;100324.13;;;15.59;34.88
5966;BME280;3009;43.224;27.976;2023-04-29T11:32:25;100328.59;;;15.80;34.56
5966;BME280;3009;43.224;27.976;2023-04-29T11:34:53;100323.28;;;15.83;33.22
5966;BME280;3009;43.224;27.976;2023-04-29T11:37:25;100311.97;;;15.93;33.63
5966;BME280;3009;43.224;27.976;2023-04-29T11:39:58;100309.59;;;15.92;34.43
5966;BME280;3009;43.224;27.976;2023-04-29T11:42:28;100314.81;;;16.13;34.17
5966;BME280;3009;43.224;27.976;2023-04-29T11:44:56;100301.34;;;16.17;32.99
5966;BME280;3009;43.224;27.976;2023-04-29T11:47:26;100304.97;;;15.92;33.83
5966;BME280;3009;43.224;27.976;2023-04-29T11:50:03;100306.22;;;15.95;33.71
5966;BME280;3009;43.224;27.976;2023-04-29T11:52:34;100300.72;;;15.91;33.70
5966;BME280;3009;43.224;27.976;2023-04-29T11:55:04;100296.72;;;16.01;33.86
5966;BME280;3009;43.224;27.976;2023-04-29T11:57:32;100303.25;;;16.00;33.95
5966;BME280;3009;43.224;27.976;2023-04-29T12:00:01;100284.78;;;15.74;34.12
5966;BME280;3009;43.224;27.976;2023-04-29T12:02:34;100273.16;;;15.86;33.86
5966;BME280;3009;43.224;27.976;2023-04-29T12:05:05;100288.78;;;16.08;34.15
5966;BME280;3009;43.224;27.976;2023-04-29T12:07:36;100274.19;;;15.81;32.58
5966;BME280;3009;43.224;27.976;2023-04-29T12:10:07;100273.69;;;15.91;33.91
5966;BME280;3009;43.224;27.976;2023-04-29T12:12:37;100280.94;;;16.19;33.05
5966;BME280;3009;43.224;27.976;2023-04-29T12:15:07;100272.91;;;16.07;32.19
5966;BME280;3009;43.224;27.976;2023-04-29T12:17:37;100266.84;;;15.82;32.21
5966;BME280;3009;43.224;27.976;2023-04-29T12:20:06;100266.63;;;15.87;32.64
5966;BME280;3009;43.224;27.976;2023-04-29T12:22:38;100270.28;;;16.10;32.41
5966;BME280;3009;43.224;27.976;2023-04-29T12:25:07;100266.88;;;15.98;32.40
5966;BME280;3009;43.224;27.976;2023-04-29T12:27:39;100268.28;;;16.07;31.55
5966;BME280;3009;43.224;27.976;2023-04-29T12:30:09;100262.25;;;15.98;32.37
5966;BME280;3009;43.224;27.976;2023-04-29T12:32:38;100258.84;;;16.01;32.42
5966;BME280;3009;43.224;27.976;2023-04-29T12:35:13;100264.19;;;15.98;32.43
5966;BME280;3009;43.224;27.976;2023-04-29T12:37:48;100268.78;;;15.97;32.46
5966;BME280;3009;43.224;27.976;2023-04-29T12:40:16;100260.16;;;15.91;32.10
5966;BME280;3009;43.224;27.976;2023-04-29T12:42:46;100252.47;;;15.93;31.38
5966;BME280;3009;43.224;27.976;2023-04-29T12:45:29;100260.16;;;16.07;30.49
5966;BME280;3009;43.224;27.976;2023-04-29T12:47:58;100255.81;;;15.87;30.46
5966;BME280;3009;43.224;27.976;2023-04-29T12:50:31;100256.91;;;15.86;31.48
5966;BME280;3009;43.224;27.976;2023-04-29T12:53:01;100260.94;;;15.92;31.79
5966;BME280;3009;43.224;27.976;2023-04-29T12:55:31;100249.59;;;15.86;31.48
5966;BME280;3009;43.224;27.976;2023-04-29T12:58:01;100263.50;;;16.01;30.67
5966;BME280;3009;43.224;27.976;2023-04-29T13:00:29;100249.34;;;15.91;30.42
5966;BME280;3009;43.224;27.976;2023-04-29T13:02:58;100243.88;;;16.04;31.56
5966;BME280;3009;43.224;27.976;2023-04-29T13:05:28;100245.88;;;16.07;32.76
5966;BME280;3009;43.224;27.976;2023-04-29T13:07:56;100239.38;;;15.80;32.79
5966;BME280;3009;43.224;27.976;2023-04-29T13:10:26;100236.00;;;16.15;33.39
5966;BME280;3009;43.224;27.976;2023-04-29T13:12:55;100244.41;;;16.09;32.79
5966;BME280;3009;43.224;27.976;2023-04-29T13:15:23;100235.63;;;16.00;33.25
5966;BME280;3009;43.224;27.976;2023-04-29T13:17:52;100252.06;;;16.07;33.30